sensor_id;sensor_type;location;lat;lon;timestamp;pressure;altitude;pressure_sealevel;temperature;humidity
71424;BME280;59240;51.370;-0.486;2023-02-28T00:00:30;103189.72;;;4.02;61.50
71424;BME280;59240;51.370;-0.486;2023-02-28T00:02:57;103187.81;;;3.98;61.56
71424;BME280;59240;51.370;-0.486;2023-02-28T00:05:26;103168.16;;;3.80;61.45
71424;BME280;59240;51.370;-0.486;2023-02-28T00:07:53;103174.19;;;3.81;61.49
71424;BME280;59240;51.370;-0.486;2023-02-28T00:10:22;103180.22;;;3.81;62.11
71424;BME280;59240;51.370;-0.486;2023-02-28T00:12:50;103202.81;;;3.87;62.38
71424;BME280;59240;51.370;-0.486;2023-02-28T00:15:17;103193.31;;;3.86;62.24
71424;BME280;59240;51.370;-0.486;2023-02-28T00:17:45;103177.19;;;3.71;62.19
71424;BME280;59240;51.370;-0.486;2023-02-28T00:20:13;103199.22;;;3.83;62.58
71424;BME280;59240;51.370;-0.486;2023-02-28T00:22:42;103199.97;;;3.81;62.98
71424;BME280;59240;51.370;-0.486;2023-02-28T00:25:11;103200.72;;;3.78;62.92
71424;BME280;59240;51.370;-0.486;2023-02-28T00:27:39;103166.25;;;3.57;63.15
71424;BME280;59240;51.370;-0.486;2023-02-28T00:30:08;103174.88;;;3.58;62.72
71424;BME280;59240;51.370;-0.486;2023-02-28T00:32:35;103200.28;;;3.69;62.63
71424;BME280;59240;51.370;-0.486;2023-02-28T00:35:03;103182.78;;;3.62;63.07
71424;BME280;59240;51.370;-0.486;2023-02-28T00:37:29;103200.00;;;3.63;63.50
71424;BME280;59240;51.370;-0.486;2023-02-28T00:39:56;103176.94;;;3.47;63.48
71424;BME280;59240;51.370;-0.486;2023-02-28T00:42:23;103199.88;;;3.60;63.55
71424;BME280;59240;51.370;-0.486;2023-02-28T00:44:50;103198.72;;;3.53;63.41
71424;BME280;59240;51.370;-0.486;2023-02-28T00:47:17;103198.59;;;3.50;63.55
71424;BME280;59240;51.370;-0.486;2023-02-28T00:49:43;103197.69;;;3.50;63.81
71424;BME280;59240;51.370;-0.486;2023-02-28T00:52:10;103183.38;;;3.37;64.34
71424;BME280;59240;51.370;-0.486;2023-02-28T00:54:36;103201.50;;;3.39;64.47
71424;BME280;59240;51.370;-0.486;2023-02-28T00:57:03;103209.22;;;3.39;64.27
71424;BME280;59240;51.370;-0.486;2023-02-28T00:59:30;103194.34;;;3.33;64.49
71424;BME280;59240;51.370;-0.486;2023-02-28T01:01:56;103172.00;;;3.14;64.67
71424;BME280;59240;51.370;-0.486;2023-02-28T01:04:23;103177.84;;;3.10;64.12
71424;BME280;59240;51.370;-0.486;2023-02-28T01:06:49;103203.19;;;3.20;64.41
71424;BME280;59240;51.370;-0.486;2023-02-28T01:09:16;103216.88;;;3.19;64.68
71424;BME280;59240;51.370;-0.486;2023-02-28T01:11:43;103208.16;;;3.16;64.52
71424;BME280;59240;51.370;-0.486;2023-02-28T01:14:14;103212.31;;;3.14;64.51
71424;BME280;59240;51.370;-0.486;2023-02-28T01:16:41;103214.84;;;3.12;65.61
71424;BME280;59240;51.370;-0.486;2023-02-28T01:19:08;103214.53;;;3.06;65.54
71424;BME280;59240;51.370;-0.486;2023-02-28T01:21:35;103219.69;;;3.06;64.89
71424;BME280;59240;51.370;-0.486;2023-02-28T01:24:03;103212.34;;;2.96;65.68
71424;BME280;59240;51.370;-0.486;2023-02-28T01:26:30;103191.97;;;2.83;65.58
71424;BME280;59240;51.370;-0.486;2023-02-28T01:28:57;103219.38;;;3.00;65.39
71424;BME280;59240;51.370;-0.486;2023-02-28T01:31:24;103189.53;;;2.86;65.16
71424;BME280;59240;51.370;-0.486;2023-02-28T01:33:51;103189.09;;;2.77;65.38
71424;BME280;59240;51.370;-0.486;2023-02-28T01:36:20;103233.00;;;2.97;65.79
71424;BME280;59240;51.370;-0.486;2023-02-28T01:38:48;103225.81;;;2.90;65.32
71424;BME280;59240;51.370;-0.486;2023-02-28T01:41:17;103234.41;;;2.91;65.52
71424;BME280;59240;51.370;-0.486;2023-02-28T01:46:12;103237.50;;;2.84;65.83
71424;BME280;59240;51.370;-0.486;2023-02-28T01:48:42;103235.44;;;2.77;65.60
71424;BME280;59240;51.370;-0.486;2023-02-28T01:51:14;103228.34;;;2.72;66.33
71424;BME280;59240;51.370;-0.486;2023-02-28T01:53:49;103229.81;;;2.67;65.72
71424;BME280;59240;51.370;-0.486;2023-02-28T01:56:20;103202.88;;;2.43;66.08
71424;BME280;59240;51.370;-0.486;2023-02-28T01:58:53;103229.34;;;2.58;65.65
71424;BME280;59240;51.370;-0.486;2023-02-28T02:01:21;103220.31;;;2.49;66.25
71424;BME280;59240;51.370;-0.486;2023-02-28T02:03:57;103204.19;;;2.35;66.38
71424;BME280;59240;51.370;-0.486;2023-02-28T02:06:29;103226.16;;;2.46;66.56
71424;BME280;59240;51.370;-0.486;2023-02-28T02:08:56;103216.38;;;2.39;66.60
71424;BME280;59240;51.370;-0.486;2023-02-28T02:11:24;103223.78;;;2.33;66.40
71424;BME280;59240;51.370;-0.486;2023-02-28T02:19:42;103228.47;;;2.24;67.20
71424;BME280;59240;51.370;-0.486;2023-02-28T02:27:23;103234.91;;;2.15;68.14
71424;BME280;59240;51.370;-0.486;2023-02-28T02:37:38;103231.75;;;2.05;66.73
71424;BME280;59240;51.370;-0.486;2023-02-28T02:40:14;103228.16;;;2.01;67.29
71424;BME280;59240;51.370;-0.486;2023-02-28T02:45:38;103190.88;;;1.77;67.97
71424;BME280;59240;51.370;-0.486;2023-02-28T02:48:09;103175.13;;;1.71;67.46
71424;BME280;59240;51.370;-0.486;2023-02-28T02:50:39;103206.00;;;1.87;67.59
71424;BME280;59240;51.370;-0.486;2023-02-28T02:53:09;103207.28;;;1.79;67.74
71424;BME280;59240;51.370;-0.486;2023-02-28T02:55:41;103209.84;;;1.79;67.79
71424;BME280;59240;51.370;-0.486;2023-02-28T02:58:16;103219.41;;;1.81;68.46
71424;BME280;59240;51.370;-0.486;2023-02-28T03:00:48;103196.97;;;1.62;68.12
71424;BME280;59240;51.370;-0.486;2023-02-28T03:03:18;103227.84;;;1.79;67.66
71424;BME280;59240;51.370;-0.486;2023-02-28T03:05:50;103213.94;;;1.75;67.75
71424;BME280;59240;51.370;-0.486;2023-02-28T03:08:16;103206.69;;;1.68;68.41
71424;BME280;59240;51.370;-0.486;2023-02-28T03:10:45;103211.84;;;1.68;67.82
71424;BME280;59240;51.370;-0.486;2023-02-28T03:16:32;103212.56;;;1.66;69.78
71424;BME280;59240;51.370;-0.486;2023-02-28T03:22:45;103182.03;;;1.39;69.47
71424;BME280;59240;51.370;-0.486;2023-02-28T03:25:08;103216.31;;;1.56;69.37
71424;BME280;59240;51.370;-0.486;2023-02-28T03:30:38;103209.06;;;1.49;69.06
71424;BME280;59240;51.370;-0.486;2023-02-28T03:35:51;103142.63;;;1.07;69.16
71424;BME280;59240;51.370;-0.486;2023-02-28T03:38:28;103196.44;;;1.37;70.36
71424;BME280;59240;51.370;-0.486;2023-02-28T03:41:05;103163.13;;;1.22;70.22
71424;BME280;59240;51.370;-0.486;2023-02-28T03:43:35;103190.34;;;1.35;70.34
71424;BME280;59240;51.370;-0.486;2023-02-28T03:46:08;103203.59;;;1.43;70.28
71424;BME280;59240;51.370;-0.486;2023-02-28T03:49:11;103196.38;;;1.35;71.17
71424;BME280;59240;51.370;-0.486;2023-02-28T03:51:35;103216.72;;;1.47;69.89
71424;BME280;59240;51.370;-0.486;2023-02-28T03:54:10;103216.72;;;1.47;70.07
71424;BME280;59240;51.370;-0.486;2023-02-28T03:59:19;103191.09;;;1.32;71.61
71424;BME280;59240;51.370;-0.486;2023-02-28T04:01:50;103184.19;;;1.31;71.88
71424;BME280;59240;51.370;-0.486;2023-02-28T04:04:18;103204.59;;;1.45;72.73
71424;BME280;59240;51.370;-0.486;2023-02-28T04:06:45;103213.53;;;1.51;71.18
71424;BME280;59240;51.370;-0.486;2023-02-28T04:09:13;103220.56;;;1.55;72.57
71424;BME280;59240;51.370;-0.486;2023-02-28T04:11:47;103191.41;;;1.39;71.89
71424;BME280;59240;51.370;-0.486;2023-02-28T04:14:18;103185.56;;;1.41;71.51
71424;BME280;59240;51.370;-0.486;2023-02-28T04:16:45;103217.31;;;1.58;71.90
71424;BME280;59240;51.370;-0.486;2023-02-28T04:19:12;103215.44;;;1.55;71.16
71424;BME280;59240;51.370;-0.486;2023-02-28T04:21:50;103226.03;;;1.61;72.13
71424;BME280;59240;51.370;-0.486;2023-02-28T04:24:22;103230.28;;;1.61;70.92
71424;BME280;59240;51.370;-0.486;2023-02-28T04:26:54;103219.63;;;1.53;71.28
71424;BME280;59240;51.370;-0.486;2023-02-28T04:29:24;103223.78;;;1.51;70.92
71424;BME280;59240;51.370;-0.486;2023-02-28T04:31:51;103229.97;;;1.55;70.77
71424;BME280;59240;51.370;-0.486;2023-02-28T04:34:20;103215.63;;;1.44;71.65
71424;BME280;59240;51.370;-0.486;2023-02-28T04:36:48;103183.59;;;1.21;71.18
71424;BME280;59240;51.370;-0.486;2023-02-28T04:39:37;103228.59;;;1.45;71.07
71424;BME280;59240;51.370;-0.486;2023-02-28T04:42:03;103244.16;;;1.48;71.84
71424;BME280;59240;51.370;-0.486;2023-02-28T04:44:30;103229.84;;;1.37;71.31
71424;BME280;59240;51.370;-0.486;2023-02-28T04:46:57;103223.59;;;1.32;71.88
71424;BME280;59240;51.370;-0.486;2023-02-28T04:49:25;103237.72;;;1.40;70.84
71424;BME280;59240;51.370;-0.486;2023-02-28T04:51:52;103230.56;;;1.34;70.90
71424;BME280;59240;51.370;-0.486;2023-02-28T04:54:19;103201.94;;;1.12;71.65
71424;BME280;59240;51.370;-0.486;2023-02-28T04:56:46;103195.59;;;1.05;72.84
71424;BME280;59240;51.370;-0.486;2023-02-28T04:59:14;103224.94;;;1.25;72.08
71424;BME280;59240;51.370;-0.486;2023-02-28T05:01:46;103239.69;;;1.29;72.94
71424;BME280;59240;51.370;-0.486;2023-02-28T05:04:14;103229.34;;;1.28;72.25
71424;BME280;59240;51.370;-0.486;2023-02-28T05:06:40;103215.19;;;1.20;72.56
71424;BME280;59240;51.370;-0.486;2023-02-28T05:09:07;103232.63;;;1.25;72.54
71424;BME280;59240;51.370;-0.486;2023-02-28T05:11:34;103244.19;;;1.33;72.46
71424;BME280;59240;51.370;-0.486;2023-02-28T05:14:06;103246.94;;;1.36;72.49
71424;BME280;59240;51.370;-0.486;2023-02-28T05:16:35;103228.03;;;1.20;72.30
71424;BME280;59240;51.370;-0.486;2023-02-28T05:19:02;103242.97;;;1.27;72.41
71424;BME280;59240;51.370;-0.486;2023-02-28T05:21:29;103265.47;;;1.31;71.84
71424;BME280;59240;51.370;-0.486;2023-02-28T05:23:59;103245.13;;;1.19;72.25
71424;BME280;59240;51.370;-0.486;2023-02-28T05:26:26;103253.78;;;1.21;72.01
71424;BME280;59240;51.370;-0.486;2023-02-28T05:28:54;103257.25;;;1.22;72.39
71424;BME280;59240;51.370;-0.486;2023-02-28T05:31:22;103245.66;;;1.14;72.29
71424;BME280;59240;51.370;-0.486;2023-02-28T05:33:48;103261.88;;;1.13;71.77
71424;BME280;59240;51.370;-0.486;2023-02-28T05:36:15;103213.16;;;0.83;72.25
71424;BME280;59240;51.370;-0.486;2023-02-28T05:38:42;103220.03;;;0.84;71.87
71424;BME280;59240;51.370;-0.486;2023-02-28T05:41:09;103248.88;;;0.95;71.84
71424;BME280;59240;51.370;-0.486;2023-02-28T05:43:37;103266.22;;;0.99;72.25
71424;BME280;59240;51.370;-0.486;2023-02-28T05:46:09;103270.28;;;0.95;71.88
71424;BME280;59240;51.370;-0.486;2023-02-28T05:48:37;103259.56;;;0.88;71.96
71424;BME280;59240;51.370;-0.486;2023-02-28T05:51:05;103263.66;;;0.84;71.97
71424;BME280;59240;51.370;-0.486;2023-02-28T05:53:32;103228.09;;;0.61;71.96
71424;BME280;59240;51.370;-0.486;2023-02-28T05:56:00;103268.34;;;0.76;71.80
71424;BME280;59240;51.370;-0.486;2023-02-28T05:58:27;103222.88;;;0.44;71.85
71424;BME280;59240;51.370;-0.486;2023-02-28T06:01:00;103273.22;;;0.72;72.29
71424;BME280;59240;51.370;-0.486;2023-02-28T06:03:44;103247.28;;;0.52;71.86
71424;BME280;59240;51.370;-0.486;2023-02-28T06:06:11;103259.31;;;0.53;72.18
71424;BME280;59240;51.370;-0.486;2023-02-28T06:08:37;103261.69;;;0.50;71.90
71424;BME280;59240;51.370;-0.486;2023-02-28T06:11:04;103264.94;;;0.48;71.92
71424;BME280;59240;51.370;-0.486;2023-02-28T06:13:31;103271.06;;;0.50;72.13
71424;BME280;59240;51.370;-0.486;2023-02-28T06:16:00;103284.16;;;0.54;71.89
71424;BME280;59240;51.370;-0.486;2023-02-28T06:18:29;103217.72;;;0.15;71.70
71424;BME280;59240;51.370;-0.486;2023-02-28T06:20:56;103278.50;;;0.45;71.91
71424;BME280;59240;51.370;-0.486;2023-02-28T06:23:22;103257.88;;;0.29;71.75
71424;BME280;59240;51.370;-0.486;2023-02-28T06:25:49;103245.84;;;0.28;71.56
71424;BME280;59240;51.370;-0.486;2023-02-28T06:28:16;103247.25;;;0.23;72.20
71424;BME280;59240;51.370;-0.486;2023-02-28T06:30:42;103247.25;;;0.23;71.86
71424;BME280;59240;51.370;-0.486;2023-02-28T06:33:12;103228.47;;;0.09;72.23
71424;BME280;59240;51.370;-0.486;2023-02-28T06:35:43;103260.22;;;0.26;72.40
71424;BME280;59240;51.370;-0.486;2023-02-28T06:38:42;103240.78;;;0.15;71.65
71424;BME280;59240;51.370;-0.486;2023-02-28T06:41:10;103266.38;;;0.28;72.43
71424;BME280;59240;51.370;-0.486;2023-02-28T06:43:41;103272.44;;;0.30;73.39
71424;BME280;59240;51.370;-0.486;2023-02-28T06:46:11;103181.59;;;-0.18;73.44
71424;BME280;59240;51.370;-0.486;2023-02-28T06:48:45;103245.56;;;0.23;73.83
71424;BME280;59240;51.370;-0.486;2023-02-28T06:51:15;103261.78;;;0.37;74.44
71424;BME280;59240;51.370;-0.486;2023-02-28T06:53:42;103256.03;;;0.41;74.21
71424;BME280;59240;51.370;-0.486;2023-02-28T06:56:12;103269.13;;;0.61;74.54
71424;BME280;59240;51.370;-0.486;2023-02-28T06:58:39;103254.16;;;0.53;74.00
71424;BME280;59240;51.370;-0.486;2023-02-28T07:01:07;103275.63;;;0.69;74.17
71424;BME280;59240;51.370;-0.486;2023-02-28T07:03:35;103278.63;;;0.76;73.72
71424;BME280;59240;51.370;-0.486;2023-02-28T07:06:04;103281.44;;;0.81;74.80
71424;BME280;59240;51.370;-0.486;2023-02-28T07:08:31;103259.13;;;0.80;74.89
71424;BME280;59240;51.370;-0.486;2023-02-28T07:10:59;103259.34;;;0.83;75.05
71424;BME280;59240;51.370;-0.486;2023-02-28T07:13:26;103287.25;;;1.08;75.43
71424;BME280;59240;51.370;-0.486;2023-02-28T07:16:04;103269.22;;;1.06;76.73
71424;BME280;59240;51.370;-0.486;2023-02-28T07:18:31;103292.72;;;1.29;75.97
71424;BME280;59240;51.370;-0.486;2023-02-28T07:21:01;103291.31;;;1.34;75.55
71424;BME280;59240;51.370;-0.486;2023-02-28T07:23:28;103288.47;;;1.44;75.99
71424;BME280;59240;51.370;-0.486;2023-02-28T07:25:54;103269.50;;;1.42;75.78
71424;BME280;59240;51.370;-0.486;2023-02-28T07:28:21;103284.16;;;1.59;75.89
71424;BME280;59240;51.370;-0.486;2023-02-28T07:30:47;103291.56;;;1.70;75.67
71424;BME280;59240;51.370;-0.486;2023-02-28T07:33:15;103259.59;;;1.64;76.11
71424;BME280;59240;51.370;-0.486;2023-02-28T07:35:42;103255.94;;;1.76;75.99
71424;BME280;59240;51.370;-0.486;2023-02-28T07:38:09;103296.91;;;2.05;76.78
71424;BME280;59240;51.370;-0.486;2023-02-28T07:40:38;103259.56;;;1.96;77.83
71424;BME280;59240;51.370;-0.486;2023-02-28T07:43:05;103219.53;;;1.84;76.96
71424;BME280;59240;51.370;-0.486;2023-02-28T07:45:32;103280.47;;;2.34;76.97
71424;BME280;59240;51.370;-0.486;2023-02-28T07:48:01;103297.69;;;2.53;76.82
71424;BME280;59240;51.370;-0.486;2023-02-28T07:50:28;103275.22;;;2.49;76.92
71424;BME280;59240;51.370;-0.486;2023-02-28T07:52:58;103300.41;;;2.72;76.68
71424;BME280;59240;51.370;-0.486;2023-02-28T07:55:25;103253.31;;;2.57;76.62
71424;BME280;59240;51.370;-0.486;2023-02-28T07:57:56;103238.84;;;2.59;76.99
71424;BME280;59240;51.370;-0.486;2023-02-28T08:00:24;103252.50;;;2.74;76.87
71424;BME280;59240;51.370;-0.486;2023-02-28T08:02:50;103275.91;;;2.97;77.38
71424;BME280;59240;51.370;-0.486;2023-02-28T08:05:19;103250.59;;;2.88;76.87
71424;BME280;59240;51.370;-0.486;2023-02-28T08:07:49;103262.00;;;3.11;76.53
71424;BME280;59240;51.370;-0.486;2023-02-28T08:10:15;103261.19;;;3.12;76.92
71424;BME280;59240;51.370;-0.486;2023-02-28T08:12:42;103290.84;;;3.40;76.55
71424;BME280;59240;51.370;-0.486;2023-02-28T08:15:09;103287.88;;;3.50;76.57
71424;BME280;59240;51.370;-0.486;2023-02-28T08:17:36;103266.63;;;3.54;76.01
71424;BME280;59240;51.370;-0.486;2023-02-28T08:20:03;103270.41;;;3.62;76.30
71424;BME280;59240;51.370;-0.486;2023-02-28T08:22:30;103287.41;;;3.76;76.71
71424;BME280;59240;51.370;-0.486;2023-02-28T08:24:57;103261.34;;;3.70;76.42
71424;BME280;59240;51.370;-0.486;2023-02-28T08:27:23;103272.75;;;3.75;76.73
71424;BME280;59240;51.370;-0.486;2023-02-28T08:29:50;103312.56;;;4.00;76.21
71424;BME280;59240;51.370;-0.486;2023-02-28T08:32:17;103263.25;;;3.74;76.35
71424;BME280;59240;51.370;-0.486;2023-02-28T08:34:55;103252.41;;;3.81;76.13
71424;BME280;59240;51.370;-0.486;2023-02-28T08:37:22;103299.75;;;4.21;76.44
71424;BME280;59240;51.370;-0.486;2023-02-28T08:39:48;103251.88;;;4.08;76.49
71424;BME280;59240;51.370;-0.486;2023-02-28T08:42:15;103305.31;;;4.49;75.55
71424;BME280;59240;51.370;-0.486;2023-02-28T08:44:42;103270.50;;;4.39;75.84
71424;BME280;59240;51.370;-0.486;2023-02-28T08:47:08;103262.31;;;4.50;76.23
71424;BME280;59240;51.370;-0.486;2023-02-28T08:49:36;103306.81;;;4.84;76.85
71424;BME280;59240;51.370;-0.486;2023-02-28T08:52:04;103292.41;;;4.89;76.43
71424;BME280;59240;51.370;-0.486;2023-02-28T08:54:31;103255.97;;;4.83;76.27
71424;BME280;59240;51.370;-0.486;2023-02-28T08:56:59;103279.13;;;5.01;75.67
71424;BME280;59240;51.370;-0.486;2023-02-28T08:59:26;103273.44;;;5.10;75.93
71424;BME280;59240;51.370;-0.486;2023-02-28T09:01:52;103300.38;;;5.37;75.04
71424;BME280;59240;51.370;-0.486;2023-02-28T09:04:19;103287.56;;;5.40;75.52
71424;BME280;59240;51.370;-0.486;2023-02-28T09:06:47;103262.44;;;5.36;75.05
71424;BME280;59240;51.370;-0.486;2023-02-28T09:09:15;103301.69;;;5.71;75.50
71424;BME280;59240;51.370;-0.486;2023-02-28T09:11:42;103280.88;;;5.68;74.80
71424;BME280;59240;51.370;-0.486;2023-02-28T09:14:09;103268.06;;;5.71;74.38
71424;BME280;59240;51.370;-0.486;2023-02-28T09:16:35;103292.41;;;5.98;74.84
71424;BME280;59240;51.370;-0.486;2023-02-28T09:19:03;103274.31;;;5.98;74.44
71424;BME280;59240;51.370;-0.486;2023-02-28T09:21:29;103301.19;;;6.26;74.43
71424;BME280;59240;51.370;-0.486;2023-02-28T09:23:56;103289.28;;;6.31;74.18
71424;BME280;59240;51.370;-0.486;2023-02-28T09:26:25;103288.66;;;6.38;73.97
71424;BME280;59240;51.370;-0.486;2023-02-28T09:28:54;103262.59;;;6.32;73.55
71424;BME280;59240;51.370;-0.486;2023-02-28T09:31:23;103278.09;;;6.56;73.58
71424;BME280;59240;51.370;-0.486;2023-02-28T09:33:51;103264.31;;;6.57;73.15
71424;BME280;59240;51.370;-0.486;2023-02-28T09:36:19;103263.84;;;6.69;73.35
71424;BME280;59240;51.370;-0.486;2023-02-28T09:38:47;103290.75;;;6.99;73.05
71424;BME280;59240;51.370;-0.486;2023-02-28T09:41:22;103272.53;;;6.96;73.07
71424;BME280;59240;51.370;-0.486;2023-02-28T09:43:53;103250.47;;;6.82;69.97
71424;BME280;59240;51.370;-0.486;2023-02-28T09:46:40;103257.03;;;6.98;71.75
71424;BME280;59240;51.370;-0.486;2023-02-28T09:49:24;103249.50;;;7.05;72.18
71424;BME280;59240;51.370;-0.486;2023-02-28T09:52:09;103253.41;;;7.20;71.09
71424;BME280;59240;51.370;-0.486;2023-02-28T09:54:36;103273.06;;;7.40;71.75
71424;BME280;59240;51.370;-0.486;2023-02-28T09:57:29;103274.44;;;7.56;71.65
71424;BME280;59240;51.370;-0.486;2023-02-28T10:00:15;103282.44;;;7.63;70.74
71424;BME280;59240;51.370;-0.486;2023-02-28T10:08:11;103244.19;;;7.56;69.59
71424;BME280;59240;51.370;-0.486;2023-02-28T10:10:41;103272.66;;;7.83;70.23
71424;BME280;59240;51.370;-0.486;2023-02-28T10:16:11;103256.63;;;7.98;68.51
71424;BME280;59240;51.370;-0.486;2023-02-28T10:18:47;103209.41;;;7.80;69.88
71424;BME280;59240;51.370;-0.486;2023-02-28T10:21:28;103234.19;;;8.00;68.46
71424;BME280;59240;51.370;-0.486;2023-02-28T10:24:14;103229.03;;;8.02;68.05
71424;BME280;59240;51.370;-0.486;2023-02-28T10:26:45;103273.00;;;8.26;69.82
71424;BME280;59240;51.370;-0.486;2023-02-28T10:29:14;103219.47;;;7.99;68.98
71424;BME280;59240;51.370;-0.486;2023-02-28T10:31:41;103242.34;;;8.12;68.61
71424;BME280;59240;51.370;-0.486;2023-02-28T10:34:11;103259.91;;;8.22;67.63
71424;BME280;59240;51.370;-0.486;2023-02-28T10:36:41;103250.13;;;8.12;68.85
71424;BME280;59240;51.370;-0.486;2023-02-28T10:39:35;103265.03;;;8.19;67.94
71424;BME280;59240;51.370;-0.486;2023-02-28T10:42:03;103262.50;;;8.22;68.96
71424;BME280;59240;51.370;-0.486;2023-02-28T10:44:33;103202.78;;;7.89;68.47
71424;BME280;59240;51.370;-0.486;2023-02-28T10:47:01;103226.41;;;8.00;67.72
71424;BME280;59240;51.370;-0.486;2023-02-28T10:49:28;103255.44;;;8.17;68.70
71424;BME280;59240;51.370;-0.486;2023-02-28T10:51:58;103230.06;;;8.07;68.83
71424;BME280;59240;51.370;-0.486;2023-02-28T10:54:35;103248.41;;;8.13;68.15
71424;BME280;59240;51.370;-0.486;2023-02-28T10:59:39;103238.94;;;8.15;68.67
71424;BME280;59240;51.370;-0.486;2023-02-28T11:02:38;103252.88;;;8.18;67.46
71424;BME280;59240;51.370;-0.486;2023-02-28T11:08:34;103244.09;;;8.13;68.32
71424;BME280;59240;51.370;-0.486;2023-02-28T11:10:53;103229.84;;;7.99;67.92
71424;BME280;59240;51.370;-0.486;2023-02-28T11:13:26;103243.13;;;8.10;68.35
71424;BME280;59240;51.370;-0.486;2023-02-28T11:15:57;103201.84;;;7.89;68.29
71424;BME280;59240;51.370;-0.486;2023-02-28T11:18:53;103235.34;;;8.10;67.48
71424;BME280;59240;51.370;-0.486;2023-02-28T11:21:24;103214.03;;;7.90;67.56
71424;BME280;59240;51.370;-0.486;2023-02-28T11:24:00;103236.94;;;8.05;67.91
71424;BME280;59240;51.370;-0.486;2023-02-28T11:26:39;103229.91;;;8.02;67.67
71424;BME280;59240;51.370;-0.486;2023-02-28T11:29:20;103234.34;;;8.05;68.30
71424;BME280;59240;51.370;-0.486;2023-02-28T11:32:21;103229.97;;;8.04;68.46
71424;BME280;59240;51.370;-0.486;2023-02-28T11:35:03;103216.13;;;8.03;68.26
71424;BME280;59240;51.370;-0.486;2023-02-28T11:37:31;103219.63;;;8.05;68.85
71424;BME280;59240;51.370;-0.486;2023-02-28T11:39:59;103195.09;;;7.94;68.89
71424;BME280;59240;51.370;-0.486;2023-02-28T11:42:38;103214.56;;;8.10;68.46
71424;BME280;59240;51.370;-0.486;2023-02-28T11:48:27;103194.75;;;8.13;68.36
71424;BME280;59240;51.370;-0.486;2023-02-28T11:51:33;103192.22;;;8.16;68.33
71424;BME280;59240;51.370;-0.486;2023-02-28T12:00:11;103187.41;;;8.30;68.37
71424;BME280;59240;51.370;-0.486;2023-02-28T12:05:26;103098.91;;;8.22;68.06
71424;BME280;59240;51.370;-0.486;2023-02-28T12:10:54;103152.09;;;8.71;67.94
71424;BME280;59240;51.370;-0.486;2023-02-28T12:13:38;103154.91;;;8.81;68.00
71424;BME280;59240;51.370;-0.486;2023-02-28T12:16:22;103116.47;;;8.66;66.92
71424;BME280;59240;51.370;-0.486;2023-02-28T12:19:17;103164.91;;;9.00;67.55
71424;BME280;59240;51.370;-0.486;2023-02-28T12:21:53;103158.75;;;8.96;67.67
71424;BME280;59240;51.370;-0.486;2023-02-28T12:27:03;103140.16;;;8.80;67.29
71424;BME280;59240;51.370;-0.486;2023-02-28T12:29:43;103124.34;;;8.70;67.49
71424;BME280;59240;51.370;-0.486;2023-02-28T12:35:12;103136.63;;;8.77;67.32
71424;BME280;59240;51.370;-0.486;2023-02-28T12:37:53;103097.00;;;8.48;67.70
71424;BME280;59240;51.370;-0.486;2023-02-28T12:40:25;103092.53;;;8.43;67.98
71424;BME280;59240;51.370;-0.486;2023-02-28T12:43:05;103124.28;;;8.67;67.36
71424;BME280;59240;51.370;-0.486;2023-02-28T12:45:43;103102.34;;;8.56;67.35
71424;BME280;59240;51.370;-0.486;2023-02-28T12:48:18;103099.72;;;8.53;67.42
71424;BME280;59240;51.370;-0.486;2023-02-28T12:50:51;103070.13;;;8.48;68.15
71424;BME280;59240;51.370;-0.486;2023-02-28T12:56:03;103092.19;;;8.65;68.67
71424;BME280;59240;51.370;-0.486;2023-02-28T13:09:59;103019.66;;;8.37;68.64
71424;BME280;59240;51.370;-0.486;2023-02-28T13:12:27;103064.50;;;8.66;68.53
71424;BME280;59240;51.370;-0.486;2023-02-28T13:15:19;103057.56;;;8.66;67.62
71424;BME280;59240;51.370;-0.486;2023-02-28T13:17:50;103026.13;;;8.54;68.19
71424;BME280;59240;51.370;-0.486;2023-02-28T13:20:23;103067.44;;;8.83;68.04
71424;BME280;59240;51.370;-0.486;2023-02-28T13:22:52;103055.31;;;8.82;68.70
71424;BME280;59240;51.370;-0.486;2023-02-28T13:27:49;103023.97;;;8.75;67.48
71424;BME280;59240;51.370;-0.486;2023-02-28T13:33:33;103038.09;;;8.87;67.60
71424;BME280;59240;51.370;-0.486;2023-02-28T13:38:44;103038.16;;;8.90;67.21
71424;BME280;59240;51.370;-0.486;2023-02-28T13:44:22;103029.44;;;8.88;68.54
71424;BME280;59240;51.370;-0.486;2023-02-28T13:52:12;103031.19;;;8.87;67.85
71424;BME280;59240;51.370;-0.486;2023-02-28T13:57:25;103029.44;;;8.86;67.72
71424;BME280;59240;51.370;-0.486;2023-02-28T14:00:09;103024.25;;;8.88;67.68
71424;BME280;59240;51.370;-0.486;2023-02-28T14:05:42;103008.94;;;9.01;67.80
71424;BME280;59240;51.370;-0.486;2023-02-28T14:08:22;102986.03;;;8.84;67.95
71424;BME280;59240;51.370;-0.486;2023-02-28T14:11:02;102964.19;;;8.74;68.16
71424;BME280;59240;51.370;-0.486;2023-02-28T14:13:44;103016.78;;;9.04;67.80
71424;BME280;59240;51.370;-0.486;2023-02-28T14:16:14;103020.25;;;9.05;67.97
71424;BME280;59240;51.370;-0.486;2023-02-28T14:18:57;103012.22;;;8.93;68.05
71424;BME280;59240;51.370;-0.486;2023-02-28T14:21:28;102987.72;;;8.82;68.26
71424;BME280;59240;51.370;-0.486;2023-02-28T14:24:38;103008.78;;;8.94;67.87
71424;BME280;59240;51.370;-0.486;2023-02-28T14:30:07;102987.78;;;8.85;68.11
71424;BME280;59240;51.370;-0.486;2023-02-28T14:36:13;102995.72;;;8.91;67.85
71424;BME280;59240;51.370;-0.486;2023-02-28T14:38:50;102959.88;;;8.74;67.29
71424;BME280;59240;51.370;-0.486;2023-02-28T14:41:22;102956.50;;;8.79;67.79
71424;BME280;59240;51.370;-0.486;2023-02-28T14:43:55;102989.78;;;8.98;67.77
71424;BME280;59240;51.370;-0.486;2023-02-28T14:46:25;102965.31;;;8.87;66.72
71424;BME280;59240;51.370;-0.486;2023-02-28T14:48:54;102966.25;;;8.92;67.07
71424;BME280;59240;51.370;-0.486;2023-02-28T14:51:22;102995.09;;;9.04;67.37
71424;BME280;59240;51.370;-0.486;2023-02-28T14:53:52;102958.28;;;8.83;67.95
71424;BME280;59240;51.370;-0.486;2023-02-28T14:56:33;102979.50;;;9.04;66.34
71424;BME280;59240;51.370;-0.486;2023-02-28T14:59:00;102932.25;;;8.80;67.14
71424;BME280;59240;51.370;-0.486;2023-02-28T15:01:27;102892.78;;;8.55;66.27
71424;BME280;59240;51.370;-0.486;2023-02-28T15:04:05;102941.81;;;8.82;67.37
71424;BME280;59240;51.370;-0.486;2023-02-28T15:06:32;102978.53;;;8.99;66.98